CCGS Samuel Risley — CG2960 — position and weather

sailwx.info

Track history (hours):
 
Tides and Currents Weather Stations Pressure Air Temp Water Temp Dewpoint Dewpoint Depression Visibility Wind Speed Wind Dir Waves Ship Positions

CCGS Samuel Risley (Canada)

Medium Navaids Tender - Light Icebreaker

Last reported at 2015-Aug-28 11:27 UTC. Time now 2015-Sep-01 14:14 UTC.
Position N 44°41' W 063°37'.

Length 69.73 m; beam 13.7 m; draft 5.2 m.

Type: SAR. MMSI: 316001890.

Date/timePositionNaut miles runAvg speedWind from/ knotsBaromVisibWave heightAir tempDewpointWater temp
2015-Aug-28 11:27N 44°41' W 063°37'0 0.0
2015-Aug-28 10:27N 44°41' W 063°37'0 0.0
2015-Aug-28 09:30N 44°41' W 063°37'0 0.0
2015-Aug-28 08:30N 44°41' W 063°37'0 0.0
2015-Aug-28 07:18N 44°41' W 063°37'0 0.0
2015-Aug-28 06:33N 44°41' W 063°37'0 0.0
2015-Aug-28 05:18N 44°41' W 063°37'0 0.0
2015-Aug-28 04:33N 44°41' W 063°37'0 0.0
2015-Aug-28 03:33N 44°41' W 063°37'0 0.0
2015-Aug-28 02:21N 44°41' W 063°37'0 0.0
2015-Aug-28 01:33N 44°41' W 063°37'0 0.0
2015-Aug-28 00:33N 44°41' W 063°37'0 0.0
2015-Aug-27 23:21N 44°41' W 063°37'0 0.0
2015-Aug-27 22:27N 44°41' W 063°37'0 0.0
2015-Aug-27 21:27N 44°41' W 063°37'0 0.0
2015-Aug-27 20:27N 44°41' W 063°37'0 0.0
2015-Aug-27 19:30N 44°41' W 063°37'0 0.0
2015-Aug-27 18:30N 44°41' W 063°37'0 0.0
2015-Aug-27 17:33N 44°41' W 063°37'2 1.8
2015-Aug-27 16:33N 44°40' W 063°35'9 9.0
2015-Aug-27 15:33N 44°31' W 063°30'8 0.4
2015-Aug-26 22:32N 44°27' W 063°39'0 0.0
2015-Aug-26 15:28N 44°27' W 063°39'7 3.6
2015-Aug-26 13:31N 44°26' W 063°29'1111.0
2015-Aug-26 12:33N 44°37' W 063°33'5 5.1
2015-Aug-26 11:32N 44°41' W 063°37'0 0.0
2015-Aug-26 10:31N 44°41' W 063°37'0 0.0
2015-Aug-26 09:22N 44°41' W 063°37'0 0.0
2015-Aug-26 08:22N 44°41' W 063°37'0 0.0
2015-Aug-26 07:22N 44°41' W 063°37'0 0.0
2015-Aug-26 06:25N 44°41' W 063°37'0 0.0
2015-Aug-26 05:25N 44°41' W 063°37'0 0.0
2015-Aug-26 04:28N 44°41' W 063°37'0 0.0
2015-Aug-26 03:28N 44°41' W 063°37'0 0.0
2015-Aug-26 02:28N 44°41' W 063°37'0 0.0
2015-Aug-26 01:31N 44°41' W 063°37'0 0.0
2015-Aug-26 00:28N 44°41' W 063°37'0 0.0
2015-Aug-25 23:31N 44°41' W 063°37'0 0.0
2015-Aug-25 22:31N 44°41' W 063°37'0 0.0
2015-Aug-25 21:31N 44°41' W 063°37'0 0.0
2015-Aug-25 20:31N 44°41' W 063°37'0 0.0
2015-Aug-25 19:31N 44°41' W 063°37'0 0.0
2015-Aug-25 18:22N 44°41' W 063°37'0 0.0
2015-Aug-25 17:22N 44°41' W 063°37'0 0.0
2015-Aug-25 16:25N 44°41' W 063°37'0 0.0
2015-Aug-25 15:25N 44°41' W 063°37'0 0.0
2015-Aug-25 14:22N 44°41' W 063°37'0 0.0
2015-Aug-25 13:28N 44°41' W 063°37'0 0.0
2015-Aug-25 12:28N 44°41' W 063°37'0 0.0
2015-Aug-25 11:28N 44°41' W 063°37'0 0.0
2015-Aug-25 10:31N 44°41' W 063°37'0 0.0
2015-Aug-25 09:31N 44°41' W 063°37'0 0.0
2015-Aug-25 08:31N 44°41' W 063°37'0 0.0
2015-Aug-25 07:31N 44°41' W 063°37'0 0.0
2015-Aug-25 06:22N 44°41' W 063°37'0 0.0
2015-Aug-25 05:22N 44°41' W 063°37'0 0.0
2015-Aug-25 04:25N 44°41' W 063°37'0 0.0
2015-Aug-25 03:22N 44°41' W 063°37'0 0.0
2015-Aug-25 02:25N 44°41' W 063°37'0 0.0
2015-Aug-25 01:28N 44°41' W 063°37'0 0.0
2015-Aug-25 00:28N 44°41' W 063°37'0 0.0
2015-Aug-24 23:28N 44°41' W 063°37'0 0.0
2015-Aug-24 22:31N 44°41' W 063°37'0 0.0
2015-Aug-24 21:31N 44°41' W 063°37'0 0.0
2015-Aug-24 20:31N 44°41' W 063°37'0 0.0
2015-Aug-24 19:31N 44°41' W 063°37'0 0.0
2015-Aug-24 18:31N 44°41' W 063°37'0 0.0
2015-Aug-24 17:31N 44°41' W 063°37'0 0.0
2015-Aug-24 16:31N 44°41' W 063°37'0 0.0
2015-Aug-24 15:22N 44°41' W 063°37'0 0.0
2015-Aug-24 14:25N 44°41' W 063°37'0 0.0
2015-Aug-24 13:25N 44°41' W 063°37'0 0.0
2015-Aug-24 12:25N 44°41' W 063°37'0 0.0
2015-Aug-24 11:28N 44°41' W 063°37'0 0.0
2015-Aug-22 11:31N 44°41' W 063°37'0 0.0
2015-Aug-22 10:22N 44°41' W 063°37'0 0.0
2015-Aug-22 09:25N 44°41' W 063°37'0 0.0
2015-Aug-22 08:25N 44°41' W 063°37'0 0.0
2015-Aug-22 07:25N 44°41' W 063°37'0 0.0
2015-Aug-22 06:28N 44°41' W 063°37'0 0.0
2015-Aug-22 05:28N 44°41' W 063°37'0 0.0
2015-Aug-22 04:28N 44°41' W 063°37'0 0.0
2015-Aug-22 03:31N 44°41' W 063°37'0 0.0
2015-Aug-22 02:31N 44°41' W 063°37'0 0.0
2015-Aug-22 01:31N 44°41' W 063°37'0 0.0
2015-Aug-22 00:31N 44°41' W 063°37'0 0.0
2015-Aug-21 23:31N 44°41' W 063°37'0 0.0
2015-Aug-21 22:31N 44°41' W 063°37'0 0.0
2015-Aug-21 21:22N 44°41' W 063°37'0 0.0
2015-Aug-21 20:22N 44°41' W 063°37'0 0.0
2015-Aug-21 19:25N 44°41' W 063°37'0 0.0
2015-Aug-21 18:22N 44°41' W 063°37'1 1.3
2015-Aug-21 17:34N 44°40' W 063°36'9 8.7
2015-Aug-21 16:32N 44°32' W 063°31'17 0.9
2015-Aug-20 22:33N 44°35' W 063°08'1010.5
2015-Aug-20 21:33N 44°33' W 063°22'4 4.1
2015-Aug-20 20:33N 44°30' W 063°26'4 4.5
2015-Aug-20 19:33N 44°26' W 063°29'8 6.6
2015-Aug-20 18:20N 44°24' W 063°40'3 0.8
2015-Aug-20 14:31N 44°27' W 063°39'  
Track history (hours):
 
Tides and Currents Weather Stations Pressure Air Temp Water Temp Dewpoint Dewpoint Depression Visibility Wind Speed Wind Dir Waves Ship Positions

CCGS Samuel Risley (Canada)

Medium Navaids Tender - Light Icebreaker

Last reported at 2015-Aug-28 11:27 UTC. Time now 2015-Sep-01 14:14 UTC.
Position N 44°41' W 063°37'.

Length 69.73 m; beam 13.7 m; draft 5.2 m.

Type: SAR. MMSI: 316001890.

Date/timePositionNaut miles runAvg speedWind from/ knotsBaromVisibWave heightAir tempDewpointWater temp
2015-Aug-28 11:27N 44°41' W 063°37'0 0.0
2015-Aug-28 10:27N 44°41' W 063°37'0 0.0
2015-Aug-28 09:30N 44°41' W 063°37'0 0.0
2015-Aug-28 08:30N 44°41' W 063°37'0 0.0
2015-Aug-28 07:18N 44°41' W 063°37'0 0.0
2015-Aug-28 06:33N 44°41' W 063°37'0 0.0
2015-Aug-28 05:18N 44°41' W 063°37'0 0.0
2015-Aug-28 04:33N 44°41' W 063°37'0 0.0
2015-Aug-28 03:33N 44°41' W 063°37'0 0.0
2015-Aug-28 02:21N 44°41' W 063°37'0 0.0
2015-Aug-28 01:33N 44°41' W 063°37'0 0.0
2015-Aug-28 00:33N 44°41' W 063°37'0 0.0
2015-Aug-27 23:21N 44°41' W 063°37'0 0.0
2015-Aug-27 22:27N 44°41' W 063°37'0 0.0
2015-Aug-27 21:27N 44°41' W 063°37'0 0.0
2015-Aug-27 20:27N 44°41' W 063°37'0 0.0
2015-Aug-27 19:30N 44°41' W 063°37'0 0.0
2015-Aug-27 18:30N 44°41' W 063°37'0 0.0
2015-Aug-27 17:33N 44°41' W 063°37'2 1.8
2015-Aug-27 16:33N 44°40' W 063°35'9 9.0
2015-Aug-27 15:33N 44°31' W 063°30'8 0.4
2015-Aug-26 22:32N 44°27' W 063°39'0 0.0
2015-Aug-26 15:28N 44°27' W 063°39'7 3.6
2015-Aug-26 13:31N 44°26' W 063°29'1111.0
2015-Aug-26 12:33N 44°37' W 063°33'5 5.1
2015-Aug-26 11:32N 44°41' W 063°37'0 0.0
2015-Aug-26 10:31N 44°41' W 063°37'0 0.0
2015-Aug-26 09:22N 44°41' W 063°37'0 0.0
2015-Aug-26 08:22N 44°41' W 063°37'0 0.0
2015-Aug-26 07:22N 44°41' W 063°37'0 0.0
2015-Aug-26 06:25N 44°41' W 063°37'0 0.0
2015-Aug-26 05:25N 44°41' W 063°37'0 0.0
2015-Aug-26 04:28N 44°41' W 063°37'0 0.0
2015-Aug-26 03:28N 44°41' W 063°37'0 0.0
2015-Aug-26 02:28N 44°41' W 063°37'0 0.0
2015-Aug-26 01:31N 44°41' W 063°37'0 0.0
2015-Aug-26 00:28N 44°41' W 063°37'0 0.0
2015-Aug-25 23:31N 44°41' W 063°37'0 0.0
2015-Aug-25 22:31N 44°41' W 063°37'0 0.0
2015-Aug-25 21:31N 44°41' W 063°37'0 0.0
2015-Aug-25 20:31N 44°41' W 063°37'0 0.0
2015-Aug-25 19:31N 44°41' W 063°37'0 0.0
2015-Aug-25 18:22N 44°41' W 063°37'0 0.0
2015-Aug-25 17:22N 44°41' W 063°37'0 0.0
2015-Aug-25 16:25N 44°41' W 063°37'0 0.0
2015-Aug-25 15:25N 44°41' W 063°37'0 0.0
2015-Aug-25 14:22N 44°41' W 063°37'0 0.0
2015-Aug-25 13:28N 44°41' W 063°37'0 0.0
2015-Aug-25 12:28N 44°41' W 063°37'0 0.0
2015-Aug-25 11:28N 44°41' W 063°37'0 0.0
2015-Aug-25 10:31N 44°41' W 063°37'0 0.0
2015-Aug-25 09:31N 44°41' W 063°37'0 0.0
2015-Aug-25 08:31N 44°41' W 063°37'0 0.0
2015-Aug-25 07:31N 44°41' W 063°37'0 0.0
2015-Aug-25 06:22N 44°41' W 063°37'0 0.0
2015-Aug-25 05:22N 44°41' W 063°37'0 0.0
2015-Aug-25 04:25N 44°41' W 063°37'0 0.0
2015-Aug-25 03:22N 44°41' W 063°37'0 0.0
2015-Aug-25 02:25N 44°41' W 063°37'0 0.0
2015-Aug-25 01:28N 44°41' W 063°37'0 0.0
2015-Aug-25 00:28N 44°41' W 063°37'0 0.0
2015-Aug-24 23:28N 44°41' W 063°37'0 0.0
2015-Aug-24 22:31N 44°41' W 063°37'0 0.0
2015-Aug-24 21:31N 44°41' W 063°37'0 0.0
2015-Aug-24 20:31N 44°41' W 063°37'0 0.0
2015-Aug-24 19:31N 44°41' W 063°37'0 0.0
2015-Aug-24 18:31N 44°41' W 063°37'0 0.0
2015-Aug-24 17:31N 44°41' W 063°37'0 0.0
2015-Aug-24 16:31N 44°41' W 063°37'0 0.0
2015-Aug-24 15:22N 44°41' W 063°37'0 0.0
2015-Aug-24 14:25N 44°41' W 063°37'0 0.0
2015-Aug-24 13:25N 44°41' W 063°37'0 0.0
2015-Aug-24 12:25N 44°41' W 063°37'0 0.0
2015-Aug-24 11:28N 44°41' W 063°37'0 0.0
2015-Aug-22 11:31N 44°41' W 063°37'0 0.0
2015-Aug-22 10:22N 44°41' W 063°37'0 0.0
2015-Aug-22 09:25N 44°41' W 063°37'0 0.0
2015-Aug-22 08:25N 44°41' W 063°37'0 0.0
2015-Aug-22 07:25N 44°41' W 063°37'0 0.0
2015-Aug-22 06:28N 44°41' W 063°37'0 0.0
2015-Aug-22 05:28N 44°41' W 063°37'0 0.0
2015-Aug-22 04:28N 44°41' W 063°37'0 0.0
2015-Aug-22 03:31N 44°41' W 063°37'0 0.0
2015-Aug-22 02:31N 44°41' W 063°37'0 0.0
2015-Aug-22 01:31N 44°41' W 063°37'0 0.0
2015-Aug-22 00:31N 44°41' W 063°37'0 0.0
2015-Aug-21 23:31N 44°41' W 063°37'0 0.0
2015-Aug-21 22:31N 44°41' W 063°37'0 0.0
2015-Aug-21 21:22N 44°41' W 063°37'0 0.0
2015-Aug-21 20:22N 44°41' W 063°37'0 0.0
2015-Aug-21 19:25N 44°41' W 063°37'0 0.0
2015-Aug-21 18:22N 44°41' W 063°37'1 1.3
2015-Aug-21 17:34N 44°40' W 063°36'9 8.7
2015-Aug-21 16:32N 44°32' W 063°31'17 0.9
2015-Aug-20 22:33N 44°35' W 063°08'1010.5
2015-Aug-20 21:33N 44°33' W 063°22'4 4.1
2015-Aug-20 20:33N 44°30' W 063°26'4 4.5
2015-Aug-20 19:33N 44°26' W 063°29'8 6.6
2015-Aug-20 18:20N 44°24' W 063°40'3 0.8
2015-Aug-20 14:31N 44°27' W 063°39'  

Dump ship's entire track history